sensor_id;sensor_type;location;lat;lon;timestamp;P1;durP1;ratioP1;P2;durP2;ratioP2
45402;SDS011;47427;51.976;5.326;2022-08-21T00:02:22;11.35;;;9.13;;
45402;SDS011;47427;51.976;5.326;2022-08-21T00:05:47;11.43;;;8.32;;
45402;SDS011;47427;51.976;5.326;2022-08-21T00:09:12;13.48;;;8.90;;
45402;SDS011;47427;51.976;5.326;2022-08-21T00:12:35;10.70;;;7.90;;
45402;SDS011;47427;51.976;5.326;2022-08-21T00:15:57;12.82;;;8.40;;
45402;SDS011;47427;51.976;5.326;2022-08-21T00:19:39;13.05;;;8.88;;
45402;SDS011;47427;51.976;5.326;2022-08-21T00:23:02;15.43;;;8.73;;
45402;SDS011;47427;51.976;5.326;2022-08-21T00:26:25;10.00;;;7.85;;
45402;SDS011;47427;51.976;5.326;2022-08-21T00:29:48;10.57;;;7.75;;
45402;SDS011;47427;51.976;5.326;2022-08-21T00:33:11;14.18;;;8.27;;
45402;SDS011;47427;51.976;5.326;2022-08-21T00:36:34;13.50;;;8.43;;
45402;SDS011;47427;51.976;5.326;2022-08-21T00:39:56;11.02;;;7.72;;
45402;SDS011;47427;51.976;5.326;2022-08-21T00:43:20;11.75;;;7.68;;
45402;SDS011;47427;51.976;5.326;2022-08-21T00:46:51;13.63;;;8.35;;
45402;SDS011;47427;51.976;5.326;2022-08-21T00:50:13;14.57;;;9.20;;
45402;SDS011;47427;51.976;5.326;2022-08-21T00:53:37;16.02;;;9.00;;
45402;SDS011;47427;51.976;5.326;2022-08-21T00:57:05;12.98;;;8.70;;
45402;SDS011;47427;51.976;5.326;2022-08-21T01:00:34;12.93;;;8.68;;
45402;SDS011;47427;51.976;5.326;2022-08-21T01:04:01;15.23;;;10.35;;
45402;SDS011;47427;51.976;5.326;2022-08-21T01:07:23;14.70;;;9.75;;
45402;SDS011;47427;51.976;5.326;2022-08-21T01:10:47;13.15;;;9.90;;
45402;SDS011;47427;51.976;5.326;2022-08-21T01:14:11;14.68;;;9.40;;
45402;SDS011;47427;51.976;5.326;2022-08-21T01:17:33;14.35;;;9.60;;
45402;SDS011;47427;51.976;5.326;2022-08-21T01:21:14;13.85;;;9.65;;
45402;SDS011;47427;51.976;5.326;2022-08-21T01:24:42;14.63;;;9.63;;
45402;SDS011;47427;51.976;5.326;2022-08-21T01:28:23;13.73;;;8.95;;
45402;SDS011;47427;51.976;5.326;2022-08-21T01:31:46;16.83;;;9.75;;
45402;SDS011;47427;51.976;5.326;2022-08-21T01:35:10;12.18;;;9.57;;
45402;SDS011;47427;51.976;5.326;2022-08-21T01:38:34;18.55;;;9.70;;
45402;SDS011;47427;51.976;5.326;2022-08-21T01:41:56;12.02;;;9.10;;
45402;SDS011;47427;51.976;5.326;2022-08-21T01:45:19;16.25;;;9.65;;
45402;SDS011;47427;51.976;5.326;2022-08-21T01:48:42;13.27;;;9.43;;
45402;SDS011;47427;51.976;5.326;2022-08-21T01:52:04;11.80;;;9.15;;
45402;SDS011;47427;51.976;5.326;2022-08-21T01:55:30;13.25;;;9.10;;
45402;SDS011;47427;51.976;5.326;2022-08-21T01:58:52;13.57;;;8.32;;
45402;SDS011;47427;51.976;5.326;2022-08-21T02:02:15;12.20;;;9.55;;
45402;SDS011;47427;51.976;5.326;2022-08-21T02:05:37;14.13;;;9.15;;
45402;SDS011;47427;51.976;5.326;2022-08-21T02:08:59;12.73;;;8.38;;
45402;SDS011;47427;51.976;5.326;2022-08-21T02:12:21;16.10;;;9.90;;
45402;SDS011;47427;51.976;5.326;2022-08-21T02:15:44;14.27;;;8.85;;
45402;SDS011;47427;51.976;5.326;2022-08-21T02:19:05;14.60;;;8.38;;
45402;SDS011;47427;51.976;5.326;2022-08-21T02:22:27;14.07;;;8.63;;
45402;SDS011;47427;51.976;5.326;2022-08-21T02:25:48;11.68;;;8.35;;
45402;SDS011;47427;51.976;5.326;2022-08-21T02:29:10;12.45;;;7.70;;
45402;SDS011;47427;51.976;5.326;2022-08-21T02:32:32;16.50;;;8.63;;
45402;SDS011;47427;51.976;5.326;2022-08-21T02:35:55;19.00;;;8.43;;
45402;SDS011;47427;51.976;5.326;2022-08-21T02:39:17;12.48;;;8.02;;
45402;SDS011;47427;51.976;5.326;2022-08-21T02:42:58;13.00;;;8.55;;
45402;SDS011;47427;51.976;5.326;2022-08-21T02:46:22;13.85;;;8.50;;
45402;SDS011;47427;51.976;5.326;2022-08-21T02:50:05;16.10;;;9.10;;
45402;SDS011;47427;51.976;5.326;2022-08-21T02:53:28;12.18;;;8.77;;
45402;SDS011;47427;51.976;5.326;2022-08-21T02:56:51;11.07;;;9.00;;
45402;SDS011;47427;51.976;5.326;2022-08-21T03:00:14;12.43;;;8.55;;
45402;SDS011;47427;51.976;5.326;2022-08-21T03:03:38;15.43;;;8.23;;
45402;SDS011;47427;51.976;5.326;2022-08-21T03:07:04;16.98;;;10.23;;
45402;SDS011;47427;51.976;5.326;2022-08-21T03:10:27;14.05;;;9.65;;
45402;SDS011;47427;51.976;5.326;2022-08-21T03:13:49;17.50;;;9.93;;
45402;SDS011;47427;51.976;5.326;2022-08-21T03:17:12;17.83;;;9.70;;
45402;SDS011;47427;51.976;5.326;2022-08-21T03:20:36;17.23;;;10.38;;
45402;SDS011;47427;51.976;5.326;2022-08-21T03:23:59;24.42;;;12.68;;
45402;SDS011;47427;51.976;5.326;2022-08-21T03:27:21;22.77;;;12.45;;
45402;SDS011;47427;51.976;5.326;2022-08-21T03:30:46;23.45;;;13.88;;
45402;SDS011;47427;51.976;5.326;2022-08-21T03:34:11;20.70;;;14.00;;
45402;SDS011;47427;51.976;5.326;2022-08-21T03:37:34;25.73;;;13.98;;
45402;SDS011;47427;51.976;5.326;2022-08-21T03:40:56;26.52;;;14.85;;
45402;SDS011;47427;51.976;5.326;2022-08-21T03:44:19;26.60;;;15.57;;
45402;SDS011;47427;51.976;5.326;2022-08-21T03:48:01;24.42;;;15.60;;
45402;SDS011;47427;51.976;5.326;2022-08-21T03:51:25;25.50;;;15.52;;
45402;SDS011;47427;51.976;5.326;2022-08-21T03:54:47;21.23;;;14.40;;
45402;SDS011;47427;51.976;5.326;2022-08-21T03:58:12;24.55;;;13.88;;
45402;SDS011;47427;51.976;5.326;2022-08-21T04:01:39;25.30;;;14.43;;
45402;SDS011;47427;51.976;5.326;2022-08-21T04:05:12;25.30;;;15.00;;
45402;SDS011;47427;51.976;5.326;2022-08-21T04:08:49;23.80;;;14.27;;
45402;SDS011;47427;51.976;5.326;2022-08-21T04:12:10;28.45;;;15.05;;
45402;SDS011;47427;51.976;5.326;2022-08-21T04:15:33;23.50;;;14.57;;
45402;SDS011;47427;51.976;5.326;2022-08-21T04:18:56;26.75;;;14.38;;
45402;SDS011;47427;51.976;5.326;2022-08-21T04:22:17;26.75;;;14.43;;
45402;SDS011;47427;51.976;5.326;2022-08-21T04:25:40;29.20;;;14.15;;
45402;SDS011;47427;51.976;5.326;2022-08-21T04:29:02;21.50;;;13.85;;
45402;SDS011;47427;51.976;5.326;2022-08-21T04:32:26;23.27;;;14.40;;
45402;SDS011;47427;51.976;5.326;2022-08-21T04:35:50;20.55;;;13.55;;
45402;SDS011;47427;51.976;5.326;2022-08-21T04:39:12;19.20;;;13.02;;
45402;SDS011;47427;51.976;5.326;2022-08-21T04:42:40;22.80;;;13.65;;
45402;SDS011;47427;51.976;5.326;2022-08-21T04:46:13;20.70;;;14.30;;
45402;SDS011;47427;51.976;5.326;2022-08-21T04:49:35;18.35;;;13.05;;
45402;SDS011;47427;51.976;5.326;2022-08-21T04:52:59;23.17;;;13.05;;
45402;SDS011;47427;51.976;5.326;2022-08-21T04:56:23;21.75;;;12.77;;
45402;SDS011;47427;51.976;5.326;2022-08-21T04:59:52;21.80;;;13.10;;
45402;SDS011;47427;51.976;5.326;2022-08-21T05:03:16;23.38;;;15.30;;
45402;SDS011;47427;51.976;5.326;2022-08-21T05:06:40;25.85;;;14.82;;
45402;SDS011;47427;51.976;5.326;2022-08-21T05:10:05;22.23;;;13.23;;
45402;SDS011;47427;51.976;5.326;2022-08-21T05:13:30;22.58;;;12.98;;
45402;SDS011;47427;51.976;5.326;2022-08-21T05:16:53;22.40;;;13.48;;
45402;SDS011;47427;51.976;5.326;2022-08-21T05:20:34;22.33;;;13.50;;
45402;SDS011;47427;51.976;5.326;2022-08-21T05:23:57;20.38;;;13.82;;
45402;SDS011;47427;51.976;5.326;2022-08-21T05:27:19;25.48;;;13.95;;
45402;SDS011;47427;51.976;5.326;2022-08-21T05:30:41;23.80;;;14.20;;
45402;SDS011;47427;51.976;5.326;2022-08-21T05:34:04;20.73;;;12.30;;
45402;SDS011;47427;51.976;5.326;2022-08-21T05:37:27;23.13;;;13.35;;
45402;SDS011;47427;51.976;5.326;2022-08-21T05:40:49;19.75;;;13.75;;
45402;SDS011;47427;51.976;5.326;2022-08-21T05:44:12;22.05;;;12.75;;
45402;SDS011;47427;51.976;5.326;2022-08-21T05:48:34;21.35;;;12.10;;
45402;SDS011;47427;51.976;5.326;2022-08-21T05:51:48;23.60;;;11.88;;
45402;SDS011;47427;51.976;5.326;2022-08-21T05:55:11;24.35;;;11.15;;
45402;SDS011;47427;51.976;5.326;2022-08-21T05:58:33;17.90;;;10.35;;
45402;SDS011;47427;51.976;5.326;2022-08-21T06:01:59;21.45;;;10.50;;
45402;SDS011;47427;51.976;5.326;2022-08-21T06:05:24;22.15;;;10.65;;
45402;SDS011;47427;51.976;5.326;2022-08-21T06:08:45;21.02;;;10.32;;
45402;SDS011;47427;51.976;5.326;2022-08-21T06:12:09;22.05;;;9.15;;
45402;SDS011;47427;51.976;5.326;2022-08-21T06:15:32;15.10;;;8.93;;
45402;SDS011;47427;51.976;5.326;2022-08-21T06:18:55;19.90;;;8.57;;
45402;SDS011;47427;51.976;5.326;2022-08-21T06:22:37;17.98;;;9.15;;
45402;SDS011;47427;51.976;5.326;2022-08-21T06:26:00;21.15;;;9.80;;
45402;SDS011;47427;51.976;5.326;2022-08-21T06:29:24;21.30;;;10.27;;
45402;SDS011;47427;51.976;5.326;2022-08-21T06:32:45;22.17;;;9.18;;
45402;SDS011;47427;51.976;5.326;2022-08-21T06:36:08;15.57;;;8.35;;
45402;SDS011;47427;51.976;5.326;2022-08-21T06:39:31;15.40;;;8.93;;
45402;SDS011;47427;51.976;5.326;2022-08-21T06:42:54;27.42;;;10.70;;
45402;SDS011;47427;51.976;5.326;2022-08-21T06:46:16;20.08;;;9.55;;
45402;SDS011;47427;51.976;5.326;2022-08-21T06:49:38;19.98;;;9.40;;
45402;SDS011;47427;51.976;5.326;2022-08-21T06:53:02;19.85;;;8.75;;
45402;SDS011;47427;51.976;5.326;2022-08-21T06:56:29;21.70;;;8.57;;
45402;SDS011;47427;51.976;5.326;2022-08-21T06:59:50;20.38;;;9.60;;
45402;SDS011;47427;51.976;5.326;2022-08-21T07:03:21;20.60;;;8.88;;
45402;SDS011;47427;51.976;5.326;2022-08-21T07:06:48;17.65;;;8.07;;
45402;SDS011;47427;51.976;5.326;2022-08-21T07:10:12;19.60;;;8.80;;
45402;SDS011;47427;51.976;5.326;2022-08-21T07:13:37;20.52;;;8.05;;
45402;SDS011;47427;51.976;5.326;2022-08-21T07:16:58;23.60;;;8.20;;
45402;SDS011;47427;51.976;5.326;2022-08-21T07:20:21;17.60;;;6.82;;
45402;SDS011;47427;51.976;5.326;2022-08-21T07:23:46;15.85;;;6.90;;
45402;SDS011;47427;51.976;5.326;2022-08-21T07:27:10;15.90;;;7.43;;
45402;SDS011;47427;51.976;5.326;2022-08-21T07:30:33;24.38;;;7.28;;
45402;SDS011;47427;51.976;5.326;2022-08-21T07:33:56;19.48;;;7.63;;
45402;SDS011;47427;51.976;5.326;2022-08-21T07:37:19;18.92;;;6.68;;
45402;SDS011;47427;51.976;5.326;2022-08-21T07:40:42;14.93;;;7.45;;
45402;SDS011;47427;51.976;5.326;2022-08-21T07:44:04;18.83;;;7.32;;
45402;SDS011;47427;51.976;5.326;2022-08-21T07:47:26;18.52;;;6.70;;
45402;SDS011;47427;51.976;5.326;2022-08-21T07:50:48;16.65;;;6.45;;
45402;SDS011;47427;51.976;5.326;2022-08-21T07:54:11;16.83;;;6.78;;
45402;SDS011;47427;51.976;5.326;2022-08-21T07:57:34;15.00;;;6.15;;
45402;SDS011;47427;51.976;5.326;2022-08-21T08:00:55;17.88;;;6.68;;
45402;SDS011;47427;51.976;5.326;2022-08-21T08:04:18;18.48;;;6.70;;
45402;SDS011;47427;51.976;5.326;2022-08-21T08:07:40;15.20;;;6.82;;
45402;SDS011;47427;51.976;5.326;2022-08-21T08:11:03;14.40;;;6.18;;
45402;SDS011;47427;51.976;5.326;2022-08-21T08:14:26;17.67;;;6.68;;
45402;SDS011;47427;51.976;5.326;2022-08-21T08:17:47;18.20;;;7.00;;
45402;SDS011;47427;51.976;5.326;2022-08-21T08:21:11;14.23;;;7.15;;
45402;SDS011;47427;51.976;5.326;2022-08-21T08:24:37;14.70;;;6.45;;
45402;SDS011;47427;51.976;5.326;2022-08-21T08:28:00;18.02;;;6.97;;
45402;SDS011;47427;51.976;5.326;2022-08-21T08:31:22;15.15;;;6.47;;
45402;SDS011;47427;51.976;5.326;2022-08-21T08:34:44;18.10;;;6.88;;
45402;SDS011;47427;51.976;5.326;2022-08-21T08:38:08;15.52;;;5.78;;
45402;SDS011;47427;51.976;5.326;2022-08-21T08:41:31;15.48;;;5.93;;
45402;SDS011;47427;51.976;5.326;2022-08-21T08:44:56;15.63;;;6.30;;
45402;SDS011;47427;51.976;5.326;2022-08-21T08:49:15;15.93;;;5.55;;
45402;SDS011;47427;51.976;5.326;2022-08-21T08:52:30;16.92;;;5.40;;
45402;SDS011;47427;51.976;5.326;2022-08-21T08:56:13;14.85;;;5.82;;
45402;SDS011;47427;51.976;5.326;2022-08-21T08:59:38;14.18;;;6.15;;
45402;SDS011;47427;51.976;5.326;2022-08-21T09:03:09;11.88;;;4.40;;
45402;SDS011;47427;51.976;5.326;2022-08-21T09:06:37;13.73;;;4.82;;
45402;SDS011;47427;51.976;5.326;2022-08-21T09:10:21;14.88;;;4.85;;
45402;SDS011;47427;51.976;5.326;2022-08-21T09:14:15;15.18;;;5.00;;
45402;SDS011;47427;51.976;5.326;2022-08-21T09:22:03;14.18;;;5.25;;
45402;SDS011;47427;51.976;5.326;2022-08-21T09:25:38;10.93;;;4.80;;
45402;SDS011;47427;51.976;5.326;2022-08-21T09:29:17;14.52;;;5.50;;
45402;SDS011;47427;51.976;5.326;2022-08-21T09:32:44;14.32;;;4.60;;
45402;SDS011;47427;51.976;5.326;2022-08-21T09:36:07;14.55;;;5.20;;
45402;SDS011;47427;51.976;5.326;2022-08-21T09:39:38;18.98;;;5.88;;
45402;SDS011;47427;51.976;5.326;2022-08-21T09:43:02;10.05;;;4.50;;
45402;SDS011;47427;51.976;5.326;2022-08-21T09:46:49;12.93;;;4.55;;
45402;SDS011;47427;51.976;5.326;2022-08-21T09:50:16;13.65;;;4.72;;
45402;SDS011;47427;51.976;5.326;2022-08-21T09:53:54;14.63;;;4.53;;
45402;SDS011;47427;51.976;5.326;2022-08-21T09:57:27;13.65;;;5.13;;
45402;SDS011;47427;51.976;5.326;2022-08-21T10:01:00;9.90;;;4.07;;
45402;SDS011;47427;51.976;5.326;2022-08-21T10:04:31;11.57;;;4.32;;
45402;SDS011;47427;51.976;5.326;2022-08-21T10:07:55;11.93;;;3.75;;
45402;SDS011;47427;51.976;5.326;2022-08-21T10:11:31;13.48;;;3.80;;
45402;SDS011;47427;51.976;5.326;2022-08-21T10:30:13;14.00;;;4.00;;
45402;SDS011;47427;51.976;5.326;2022-08-21T10:38:02;10.30;;;4.00;;
45402;SDS011;47427;51.976;5.326;2022-08-21T10:56:47;8.50;;;3.10;;
45402;SDS011;47427;51.976;5.326;2022-08-21T11:00:17;8.55;;;3.20;;
45402;SDS011;47427;51.976;5.326;2022-08-21T11:03:51;8.73;;;3.05;;
45402;SDS011;47427;51.976;5.326;2022-08-21T11:07:37;8.27;;;3.40;;
45402;SDS011;47427;51.976;5.326;2022-08-21T11:19:33;5.50;;;2.57;;
45402;SDS011;47427;51.976;5.326;2022-08-21T11:23:14;7.95;;;3.03;;
45402;SDS011;47427;51.976;5.326;2022-08-21T11:27:20;11.07;;;3.08;;
45402;SDS011;47427;51.976;5.326;2022-08-21T11:34:46;14.18;;;2.80;;
45402;SDS011;47427;51.976;5.326;2022-08-21T11:38:39;10.93;;;3.37;;
45402;SDS011;47427;51.976;5.326;2022-08-21T11:45:50;9.68;;;3.10;;
45402;SDS011;47427;51.976;5.326;2022-08-21T11:53:18;7.05;;;3.03;;
45402;SDS011;47427;51.976;5.326;2022-08-21T11:57:02;10.45;;;3.05;;
45402;SDS011;47427;51.976;5.326;2022-08-21T12:00:47;8.00;;;2.92;;
45402;SDS011;47427;51.976;5.326;2022-08-21T12:04:29;9.20;;;3.00;;
45402;SDS011;47427;51.976;5.326;2022-08-21T12:08:15;8.77;;;3.08;;
45402;SDS011;47427;51.976;5.326;2022-08-21T12:12:03;10.13;;;3.03;;
45402;SDS011;47427;51.976;5.326;2022-08-21T12:15:31;7.38;;;3.03;;
45402;SDS011;47427;51.976;5.326;2022-08-21T12:19:02;8.07;;;2.60;;
45402;SDS011;47427;51.976;5.326;2022-08-21T12:22:37;8.32;;;2.80;;
45402;SDS011;47427;51.976;5.326;2022-08-21T12:29:51;5.70;;;2.33;;
45402;SDS011;47427;51.976;5.326;2022-08-21T12:37:02;6.07;;;2.58;;
45402;SDS011;47427;51.976;5.326;2022-08-21T12:40:40;6.95;;;2.60;;
45402;SDS011;47427;51.976;5.326;2022-08-21T12:44:45;7.72;;;2.33;;
45402;SDS011;47427;51.976;5.326;2022-08-21T12:52:35;9.02;;;3.22;;
45402;SDS011;47427;51.976;5.326;2022-08-21T12:56:03;6.97;;;2.58;;
45402;SDS011;47427;51.976;5.326;2022-08-21T12:59:31;8.75;;;3.13;;
45402;SDS011;47427;51.976;5.326;2022-08-21T13:02:57;8.45;;;2.85;;
45402;SDS011;47427;51.976;5.326;2022-08-21T13:06:20;10.40;;;3.10;;
45402;SDS011;47427;51.976;5.326;2022-08-21T13:09:47;7.00;;;2.72;;
45402;SDS011;47427;51.976;5.326;2022-08-21T13:13:41;5.35;;;2.40;;
45402;SDS011;47427;51.976;5.326;2022-08-21T13:17:09;7.65;;;2.67;;
45402;SDS011;47427;51.976;5.326;2022-08-21T13:20:38;11.35;;;2.58;;
45402;SDS011;47427;51.976;5.326;2022-08-21T13:24:12;6.80;;;2.80;;
45402;SDS011;47427;51.976;5.326;2022-08-21T13:27:44;7.85;;;2.55;;
45402;SDS011;47427;51.976;5.326;2022-08-21T13:31:20;9.35;;;2.67;;
45402;SDS011;47427;51.976;5.326;2022-08-21T13:34:49;7.82;;;3.05;;
45402;SDS011;47427;51.976;5.326;2022-08-21T13:38:11;10.15;;;3.20;;
45402;SDS011;47427;51.976;5.326;2022-08-21T13:41:34;7.68;;;3.20;;
45402;SDS011;47427;51.976;5.326;2022-08-21T13:44:59;6.30;;;2.85;;
45402;SDS011;47427;51.976;5.326;2022-08-21T13:48:21;8.07;;;2.55;;
45402;SDS011;47427;51.976;5.326;2022-08-21T13:51:48;9.38;;;3.40;;
45402;SDS011;47427;51.976;5.326;2022-08-21T13:55:15;8.52;;;2.92;;
45402;SDS011;47427;51.976;5.326;2022-08-21T14:02:16;5.15;;;2.00;;
45402;SDS011;47427;51.976;5.326;2022-08-21T14:05:45;8.88;;;2.78;;
45402;SDS011;47427;51.976;5.326;2022-08-21T14:09:08;10.27;;;3.70;;
45402;SDS011;47427;51.976;5.326;2022-08-21T14:12:41;8.95;;;3.28;;
45402;SDS011;47427;51.976;5.326;2022-08-21T14:16:17;5.70;;;2.65;;
45402;SDS011;47427;51.976;5.326;2022-08-21T14:19:44;7.07;;;2.85;;
45402;SDS011;47427;51.976;5.326;2022-08-21T14:23:09;6.18;;;2.78;;
45402;SDS011;47427;51.976;5.326;2022-08-21T14:26:33;8.48;;;2.95;;
45402;SDS011;47427;51.976;5.326;2022-08-21T14:30:12;6.97;;;2.50;;
45402;SDS011;47427;51.976;5.326;2022-08-21T14:33:43;9.15;;;3.05;;
45402;SDS011;47427;51.976;5.326;2022-08-21T14:37:04;9.52;;;3.00;;
45402;SDS011;47427;51.976;5.326;2022-08-21T14:40:27;15.48;;;3.35;;
45402;SDS011;47427;51.976;5.326;2022-08-21T14:43:50;4.90;;;2.55;;
45402;SDS011;47427;51.976;5.326;2022-08-21T14:47:13;7.93;;;2.50;;
45402;SDS011;47427;51.976;5.326;2022-08-21T14:50:35;8.02;;;2.80;;
45402;SDS011;47427;51.976;5.326;2022-08-21T14:53:59;7.85;;;3.03;;
45402;SDS011;47427;51.976;5.326;2022-08-21T14:57:50;8.05;;;2.70;;
45402;SDS011;47427;51.976;5.326;2022-08-21T15:01:16;7.38;;;2.55;;
45402;SDS011;47427;51.976;5.326;2022-08-21T15:04:39;8.85;;;3.28;;
45402;SDS011;47427;51.976;5.326;2022-08-21T15:08:03;9.15;;;3.13;;
45402;SDS011;47427;51.976;5.326;2022-08-21T15:11:25;11.30;;;3.47;;
45402;SDS011;47427;51.976;5.326;2022-08-21T15:14:47;7.63;;;2.83;;
45402;SDS011;47427;51.976;5.326;2022-08-21T15:18:10;9.88;;;3.63;;
45402;SDS011;47427;51.976;5.326;2022-08-21T15:21:32;9.15;;;3.00;;
45402;SDS011;47427;51.976;5.326;2022-08-21T15:25:13;10.30;;;2.78;;
45402;SDS011;47427;51.976;5.326;2022-08-21T15:28:36;15.30;;;2.72;;
45402;SDS011;47427;51.976;5.326;2022-08-21T15:32:15;9.45;;;3.22;;
45402;SDS011;47427;51.976;5.326;2022-08-21T15:35:44;7.05;;;2.75;;
45402;SDS011;47427;51.976;5.326;2022-08-21T15:39:06;5.93;;;2.75;;
45402;SDS011;47427;51.976;5.326;2022-08-21T15:42:29;7.82;;;2.95;;
45402;SDS011;47427;51.976;5.326;2022-08-21T15:45:51;5.80;;;2.47;;
45402;SDS011;47427;51.976;5.326;2022-08-21T15:49:15;16.73;;;4.03;;
45402;SDS011;47427;51.976;5.326;2022-08-21T15:52:37;9.65;;;2.78;;
45402;SDS011;47427;51.976;5.326;2022-08-21T15:56:00;11.43;;;3.47;;
45402;SDS011;47427;51.976;5.326;2022-08-21T15:59:23;8.45;;;2.78;;
45402;SDS011;47427;51.976;5.326;2022-08-21T16:02:53;6.88;;;2.50;;
45402;SDS011;47427;51.976;5.326;2022-08-21T16:06:18;6.80;;;2.55;;
45402;SDS011;47427;51.976;5.326;2022-08-21T16:09:42;12.70;;;3.30;;
45402;SDS011;47427;51.976;5.326;2022-08-21T16:13:06;6.57;;;2.75;;
45402;SDS011;47427;51.976;5.326;2022-08-21T16:16:47;9.75;;;4.25;;
45402;SDS011;47427;51.976;5.326;2022-08-21T16:20:29;11.18;;;4.32;;
45402;SDS011;47427;51.976;5.326;2022-08-21T16:23:51;7.00;;;3.47;;
45402;SDS011;47427;51.976;5.326;2022-08-21T16:27:14;7.68;;;2.60;;
45402;SDS011;47427;51.976;5.326;2022-08-21T16:30:38;6.00;;;2.80;;
45402;SDS011;47427;51.976;5.326;2022-08-21T16:34:19;7.57;;;2.85;;
45402;SDS011;47427;51.976;5.326;2022-08-21T16:37:42;6.40;;;2.38;;
45402;SDS011;47427;51.976;5.326;2022-08-21T16:41:07;8.07;;;2.92;;
45402;SDS011;47427;51.976;5.326;2022-08-21T16:44:35;12.95;;;5.65;;
45402;SDS011;47427;51.976;5.326;2022-08-21T16:47:57;7.72;;;3.42;;
45402;SDS011;47427;51.976;5.326;2022-08-21T16:51:19;9.20;;;3.65;;
45402;SDS011;47427;51.976;5.326;2022-08-21T16:55:01;9.23;;;2.90;;
45402;SDS011;47427;51.976;5.326;2022-08-21T16:58:27;9.45;;;3.33;;
45402;SDS011;47427;51.976;5.326;2022-08-21T17:01:54;11.75;;;3.10;;
45402;SDS011;47427;51.976;5.326;2022-08-21T17:05:17;5.93;;;2.92;;
45402;SDS011;47427;51.976;5.326;2022-08-21T17:08:40;10.25;;;3.30;;
45402;SDS011;47427;51.976;5.326;2022-08-21T17:12:03;10.80;;;2.90;;
45402;SDS011;47427;51.976;5.326;2022-08-21T17:15:28;8.15;;;2.90;;
45402;SDS011;47427;51.976;5.326;2022-08-21T17:18:57;10.95;;;3.17;;
45402;SDS011;47427;51.976;5.326;2022-08-21T17:22:18;8.13;;;3.35;;
45402;SDS011;47427;51.976;5.326;2022-08-21T17:25:43;9.88;;;2.67;;
45402;SDS011;47427;51.976;5.326;2022-08-21T17:29:11;6.70;;;2.63;;
45402;SDS011;47427;51.976;5.326;2022-08-21T17:32:36;6.28;;;2.55;;
45402;SDS011;47427;51.976;5.326;2022-08-21T17:35:59;8.02;;;4.28;;
45402;SDS011;47427;51.976;5.326;2022-08-21T17:39:21;7.55;;;3.00;;
45402;SDS011;47427;51.976;5.326;2022-08-21T17:42:43;11.20;;;2.85;;
45402;SDS011;47427;51.976;5.326;2022-08-21T17:46:17;8.43;;;3.43;;
45402;SDS011;47427;51.976;5.326;2022-08-21T17:53:07;7.28;;;2.80;;
45402;SDS011;47427;51.976;5.326;2022-08-21T17:56:32;6.68;;;2.85;;
45402;SDS011;47427;51.976;5.326;2022-08-21T17:59:57;5.38;;;2.65;;
45402;SDS011;47427;51.976;5.326;2022-08-21T18:03:20;5.88;;;2.80;;
45402;SDS011;47427;51.976;5.326;2022-08-21T18:06:44;8.38;;;2.70;;
45402;SDS011;47427;51.976;5.326;2022-08-21T18:10:08;11.80;;;3.25;;
45402;SDS011;47427;51.976;5.326;2022-08-21T18:16:58;9.57;;;3.40;;
45402;SDS011;47427;51.976;5.326;2022-08-21T18:20:21;14.05;;;3.03;;
45402;SDS011;47427;51.976;5.326;2022-08-21T18:23:45;8.98;;;2.38;;
45402;SDS011;47427;51.976;5.326;2022-08-21T18:27:07;8.10;;;3.20;;
45402;SDS011;47427;51.976;5.326;2022-08-21T18:30:31;8.80;;;3.30;;
45402;SDS011;47427;51.976;5.326;2022-08-21T18:34:00;8.88;;;3.25;;
45402;SDS011;47427;51.976;5.326;2022-08-21T18:37:28;13.32;;;2.95;;
45402;SDS011;47427;51.976;5.326;2022-08-21T18:40:52;6.28;;;2.67;;
45402;SDS011;47427;51.976;5.326;2022-08-21T18:44:15;6.97;;;2.88;;
45402;SDS011;47427;51.976;5.326;2022-08-21T18:47:42;7.53;;;2.85;;
45402;SDS011;47427;51.976;5.326;2022-08-21T18:51:11;12.00;;;3.33;;
45402;SDS011;47427;51.976;5.326;2022-08-21T18:54:32;8.70;;;3.53;;
45402;SDS011;47427;51.976;5.326;2022-08-21T18:57:55;10.55;;;2.72;;
45402;SDS011;47427;51.976;5.326;2022-08-21T19:01:18;16.02;;;3.30;;
45402;SDS011;47427;51.976;5.326;2022-08-21T19:04:40;7.53;;;2.92;;
45402;SDS011;47427;51.976;5.326;2022-08-21T19:08:03;9.10;;;3.08;;
45402;SDS011;47427;51.976;5.326;2022-08-21T19:11:27;7.05;;;2.50;;
45402;SDS011;47427;51.976;5.326;2022-08-21T19:14:50;11.80;;;3.78;;
45402;SDS011;47427;51.976;5.326;2022-08-21T19:18:14;9.85;;;3.08;;
45402;SDS011;47427;51.976;5.326;2022-08-21T19:21:37;11.15;;;3.60;;
45402;SDS011;47427;51.976;5.326;2022-08-21T19:25:00;11.50;;;3.38;;
45402;SDS011;47427;51.976;5.326;2022-08-21T19:28:27;7.20;;;2.97;;
45402;SDS011;47427;51.976;5.326;2022-08-21T19:31:53;8.57;;;3.42;;
45402;SDS011;47427;51.976;5.326;2022-08-21T19:35:17;7.80;;;2.70;;
45402;SDS011;47427;51.976;5.326;2022-08-21T19:38:39;7.47;;;3.38;;
45402;SDS011;47427;51.976;5.326;2022-08-21T19:42:03;9.18;;;3.55;;
45402;SDS011;47427;51.976;5.326;2022-08-21T19:45:27;7.93;;;3.20;;
45402;SDS011;47427;51.976;5.326;2022-08-21T19:48:48;7.63;;;3.42;;
45402;SDS011;47427;51.976;5.326;2022-08-21T19:52:12;10.82;;;4.30;;
45402;SDS011;47427;51.976;5.326;2022-08-21T19:55:35;7.82;;;3.88;;
45402;SDS011;47427;51.976;5.326;2022-08-21T19:58:56;11.55;;;4.28;;
45402;SDS011;47427;51.976;5.326;2022-08-21T20:02:20;9.57;;;4.05;;
45402;SDS011;47427;51.976;5.326;2022-08-21T20:05:41;7.65;;;4.05;;
45402;SDS011;47427;51.976;5.326;2022-08-21T20:09:07;11.50;;;3.77;;
45402;SDS011;47427;51.976;5.326;2022-08-21T20:12:31;12.15;;;3.90;;
45402;SDS011;47427;51.976;5.326;2022-08-21T20:15:54;11.07;;;3.40;;
45402;SDS011;47427;51.976;5.326;2022-08-21T20:19:16;14.48;;;3.83;;
45402;SDS011;47427;51.976;5.326;2022-08-21T20:22:39;9.73;;;3.95;;
45402;SDS011;47427;51.976;5.326;2022-08-21T20:26:02;7.63;;;3.03;;
45402;SDS011;47427;51.976;5.326;2022-08-21T20:29:25;9.23;;;3.78;;
45402;SDS011;47427;51.976;5.326;2022-08-21T20:32:50;6.97;;;3.63;;
45402;SDS011;47427;51.976;5.326;2022-08-21T20:36:12;9.95;;;4.05;;
45402;SDS011;47427;51.976;5.326;2022-08-21T20:39:35;14.00;;;4.47;;
45402;SDS011;47427;51.976;5.326;2022-08-21T20:42:56;9.68;;;3.78;;
45402;SDS011;47427;51.976;5.326;2022-08-21T20:46:21;7.25;;;3.33;;
45402;SDS011;47427;51.976;5.326;2022-08-21T20:49:49;11.13;;;4.00;;
45402;SDS011;47427;51.976;5.326;2022-08-21T21:00:36;9.85;;;4.43;;
45402;SDS011;47427;51.976;5.326;2022-08-21T21:04:04;14.32;;;4.80;;
45402;SDS011;47427;51.976;5.326;2022-08-21T21:07:40;11.77;;;4.00;;
45402;SDS011;47427;51.976;5.326;2022-08-21T21:11:36;7.20;;;3.63;;
45402;SDS011;47427;51.976;5.326;2022-08-21T21:15:08;11.38;;;3.65;;
45402;SDS011;47427;51.976;5.326;2022-08-21T21:18:38;9.25;;;4.10;;
45402;SDS011;47427;51.976;5.326;2022-08-21T21:22:31;7.93;;;3.53;;
45402;SDS011;47427;51.976;5.326;2022-08-21T21:26:03;12.35;;;3.60;;
45402;SDS011;47427;51.976;5.326;2022-08-21T21:29:41;8.25;;;3.38;;
45402;SDS011;47427;51.976;5.326;2022-08-21T21:33:06;14.80;;;3.80;;
45402;SDS011;47427;51.976;5.326;2022-08-21T21:36:36;11.50;;;3.20;;
45402;SDS011;47427;51.976;5.326;2022-08-21T21:51:55;12.07;;;4.10;;
45402;SDS011;47427;51.976;5.326;2022-08-21T21:55:56;10.02;;;3.72;;
45402;SDS011;47427;51.976;5.326;2022-08-21T22:03:10;10.97;;;4.30;;
45402;SDS011;47427;51.976;5.326;2022-08-21T22:10:51;15.05;;;4.70;;
45402;SDS011;47427;51.976;5.326;2022-08-21T22:14:18;13.43;;;4.35;;
45402;SDS011;47427;51.976;5.326;2022-08-21T22:17:48;11.90;;;4.75;;
45402;SDS011;47427;51.976;5.326;2022-08-21T22:21:22;12.45;;;4.47;;
45402;SDS011;47427;51.976;5.326;2022-08-21T22:24:58;15.07;;;5.15;;